Time;durP1;ratioP1;P1;durP2;ratioP2;P2;SDS_P1;SDS_P2;PMS_P1;PMS_P2;Temp;Humidity;BMP_temperature;BMP_pressure;BME280_temperature;BME280_humidity;BME280_pressure;Samples;Min_cycle;Max_cycle;Signal;HPM_P1;HPM_P2
2021/04/26 00:00:11;;;;;;;1.90;1.27;;;;;;;;;;4973960;28;20495;-40
2021/04/26 00:02:36;;;;;;;2.35;1.13;;;;;;;;;;4973216;28;20109;-39
2021/04/26 00:05:03;;;;;;;2.05;0.88;;;;;;;;;;4974118;28;20545;-41
2021/04/26 00:07:28;;;;;;;5.43;2.15;;;;;;;;;;4972066;28;20250;-42
2021/04/26 00:09:54;;;;;;;6.38;1.60;;;;;;;;;;4973348;28;20538;-44
2021/04/26 00:12:19;;;;;;;1.63;1.20;;;;;;;;;;4973243;28;20042;-40
2021/04/26 00:14:47;;;;;;;6.68;1.48;;;;;;;;;;4974936;28;20034;-42
2021/04/26 00:17:13;;;;;;;3.28;1.50;;;;;;;;;;4961438;28;20426;-39
2021/04/26 00:19:38;;;;;;;4.30;1.15;;;;;;;;;;4974635;28;20018;-42
2021/04/26 00:22:03;;;;;;;3.60;2.05;;;;;;;;;;4974464;28;20041;-39
2021/04/26 00:24:28;;;;;;;7.65;1.45;;;;;;;;;;4974358;28;20131;-40
2021/04/26 00:26:54;;;;;;;4.80;1.70;;;;;;;;;;4974489;28;20069;-40
2021/04/26 00:29:19;;;;;;;2.60;1.05;;;;;;;;;;4974467;28;20054;-40
2021/04/26 00:31:45;;;;;;;6.32;1.50;;;;;;;;;;4972128;28;20085;-42
2021/04/26 00:34:10;;;;;;;8.00;2.67;;;;;;;;;;4975239;28;20391;-42
2021/04/26 00:36:35;;;;;;;5.47;2.33;;;;;;;;;;4974942;28;20034;-39
2021/04/26 00:39:01;;;;;;;12.13;2.83;;;;;;;;;;4971052;28;20018;-41
2021/04/26 00:41:26;;;;;;;8.60;3.35;;;;;;;;;;4975657;28;20475;-41
2021/04/26 00:43:51;;;;;;;10.38;2.17;;;;;;;;;;4974850;28;20022;-39
2021/04/26 00:46:17;;;;;;;5.78;2.83;;;;;;;;;;4971429;28;20056;-38
2021/04/26 00:48:42;;;;;;;9.32;7.00;;;;;;;;;;4975996;28;20495;-44
2021/04/26 00:51:08;;;;;;;3.92;2.22;;;;;;;;;;4971840;28;20082;-43
2021/04/26 00:53:33;;;;;;;5.22;2.25;;;;;;;;;;4974480;28;20166;-40
2021/04/26 00:55:58;;;;;;;3.78;1.83;;;;;;;;;;4971780;28;20400;-41
2021/04/26 00:58:24;;;;;;;5.10;2.80;;;;;;;;;;4972825;28;20480;-41
2021/04/26 01:00:51;;;;;;;4.95;1.70;;;;;;;;;;4976696;28;20173;-39
2021/04/26 01:03:16;;;;;;;3.58;2.05;;;;;;;;;;4970365;28;20089;-38
2021/04/26 01:05:41;;;;;;;10.27;3.20;;;;;;;;;;4966193;28;20458;-43
2021/04/26 01:08:07;;;;;;;5.97;2.53;;;;;;;;;;4971372;28;20626;-41
2021/04/26 01:10:34;;;;;;;14.43;4.43;;;;;;;;;;4972059;28;20155;-39
2021/04/26 01:13:05;;;;;;;11.30;2.97;;;;;;;;;;4971158;28;20019;-41
2021/04/26 01:15:35;;;;;;;5.45;2.60;;;;;;;;;;4970977;28;20347;-42
2021/04/26 01:18:06;;;;;;;6.82;2.42;;;;;;;;;;4971413;28;20026;-41
2021/04/26 01:20:40;;;;;;;4.95;3.03;;;;;;;;;;4970028;28;20055;-40
2021/04/26 01:23:31;;;;;;;15.25;3.15;;;;;;;;;;4973170;28;20475;-39
2021/04/26 01:25:56;;;;;;;;;;;;;;;;;;4971925;28;20427;-44
2021/04/26 01:28:25;;;;;;;6.32;3.45;;;;;;;;;;4970736;28;19906;-41
2021/04/26 01:31:02;;;;;;;4.93;2.08;;;;;;;;;;4970983;28;20065;-39
2021/04/26 01:33:28;;;;;;;7.03;2.60;;;;;;;;;;4970968;28;20441;-40
2021/04/26 01:35:56;;;;;;;12.98;3.45;;;;;;;;;;4974460;28;20169;-42
2021/04/26 01:38:31;;;;;;;10.35;2.78;;;;;;;;;;4974642;28;20551;-42
2021/04/26 01:40:57;;;;;;;7.32;3.85;;;;;;;;;;4971116;28;20042;-40
2021/04/26 01:43:24;;;;;;;13.60;4.30;;;;;;;;;;4971104;28;20217;-48
2021/04/26 01:45:52;;;;;;;8.80;4.53;;;;;;;;;;4971161;28;20038;-39
2021/04/26 01:48:18;;;;;;;4.88;3.05;;;;;;;;;;4969777;28;20223;-40
2021/04/26 01:50:43;;;;;;;10.88;2.50;;;;;;;;;;4970199;28;20155;-39
2021/04/26 01:53:09;;;;;;;7.35;2.55;;;;;;;;;;4970436;28;20477;-39
2021/04/26 01:55:35;;;;;;;6.40;2.80;;;;;;;;;;4970164;28;20026;-39
2021/04/26 01:58:00;;;;;;;5.53;3.08;;;;;;;;;;4973071;28;20031;-38
2021/04/26 02:00:27;;;;;;;9.45;3.15;;;;;;;;;;4960057;28;20076;-40
2021/04/26 02:02:53;;;;;;;9.15;2.95;;;;;;;;;;4971322;28;20380;-42
2021/04/26 02:05:19;;;;;;;8.10;2.63;;;;;;;;;;4970052;28;20030;-41
2021/04/26 02:07:47;;;;;;;17.15;3.60;;;;;;;;;;4968728;28;20086;-40
2021/04/26 02:10:12;;;;;;;5.45;3.05;;;;;;;;;;4969603;28;20432;-44
2021/04/26 02:12:38;;;;;;;5.00;2.80;;;;;;;;;;4977811;28;20045;-38
2021/04/26 02:15:06;;;;;;;9.35;4.03;;;;;;;;;;4969619;28;20337;-39
2021/04/26 02:17:32;;;;;;;15.02;5.03;;;;;;;;;;4972049;28;20045;-39
2021/04/26 02:19:57;;;;;;;11.27;4.53;;;;;;;;;;4970830;28;20022;-40
2021/04/26 02:22:23;;;;;;;5.57;4.00;;;;;;;;;;4972232;28;20070;-47
2021/04/26 02:24:49;;;;;;;7.72;3.67;;;;;;;;;;4972666;28;20586;-39
2021/04/26 02:27:14;;;;;;;7.32;3.08;;;;;;;;;;4972160;28;20033;-40
2021/04/26 02:29:39;;;;;;;12.30;3.08;;;;;;;;;;4975382;28;20688;-39
2021/04/26 02:32:12;;;;;;;8.35;4.85;;;;;;;;;;4971479;28;20034;-40
2021/04/26 02:34:41;;;;;;;5.38;2.47;;;;;;;;;;4969591;28;20054;-38
2021/04/26 02:37:11;;;;;;;13.50;3.88;;;;;;;;;;4970104;28;20026;-39
2021/04/26 02:39:37;;;;;;;4.88;2.85;;;;;;;;;;4970277;28;20037;-39
2021/04/26 02:42:04;;;;;;;6.55;3.05;;;;;;;;;;4972330;28;20045;-39
2021/04/26 02:44:30;;;;;;;8.82;3.83;;;;;;;;;;4969481;28;20157;-38
2021/04/26 02:47:08;;;;;;;11.30;5.30;;;;;;;;;;4971517;28;20034;-40
2021/04/26 02:49:34;;;;;;;5.57;3.15;;;;;;;;;;4973814;28;20027;-42
2021/04/26 02:51:59;;;;;;;18.55;4.18;;;;;;;;;;4974182;28;20034;-38
2021/04/26 02:54:26;;;;;;;15.35;5.82;;;;;;;;;;4969576;28;20170;-38
2021/04/26 02:56:54;;;;;;;9.02;4.00;;;;;;;;;;4971760;28;20031;-39
2021/04/26 02:59:20;;;;;;;13.05;3.42;;;;;;;;;;4972341;28;20539;-38
2021/04/26 03:01:46;;;;;;;15.00;4.68;;;;;;;;;;4968668;28;20097;-38
2021/04/26 03:04:12;;;;;;;14.80;4.15;;;;;;;;;;4973513;28;20030;-40
2021/04/26 03:06:38;;;;;;;7.43;4.28;;;;;;;;;;4978980;28;20113;-39
2021/04/26 03:09:04;;;;;;;10.85;4.82;;;;;;;;;;4975750;28;20601;-39
2021/04/26 03:11:30;;;;;;;7.88;2.85;;;;;;;;;;4974520;28;20038;-38
2021/04/26 03:13:55;;;;;;;8.73;2.80;;;;;;;;;;4975383;28;20026;-39
2021/04/26 03:16:21;;;;;;;19.13;3.50;;;;;;;;;;4972616;28;20053;-38
2021/04/26 03:18:47;;;;;;;10.65;3.47;;;;;;;;;;4978099;28;20055;-40
2021/04/26 03:21:12;;;;;;;9.93;4.70;;;;;;;;;;4975692;28;20034;-40
2021/04/26 03:23:38;;;;;;;7.07;2.58;;;;;;;;;;4973642;28;20027;-38
2021/04/26 03:26:04;;;;;;;5.07;3.75;;;;;;;;;;4973314;28;20035;-39
2021/04/26 03:28:30;;;;;;;6.60;2.70;;;;;;;;;;4973362;28;20471;-41
2021/04/26 03:30:57;;;;;;;10.65;3.30;;;;;;;;;;4974254;28;20110;-38
2021/04/26 03:33:22;;;;;;;15.15;5.50;;;;;;;;;;4975015;28;20023;-38
2021/04/26 03:35:48;;;;;;;14.82;4.53;;;;;;;;;;4972992;28;20034;-40
2021/04/26 03:38:15;;;;;;;4.97;3.55;;;;;;;;;;4973350;28;20023;-41
2021/04/26 03:40:40;;;;;;;14.18;4.93;;;;;;;;;;4976369;28;20110;-39
2021/04/26 03:43:06;;;;;;;2.88;1.80;;;;;;;;;;4977244;28;20141;-39
2021/04/26 03:45:31;;;;;;;10.85;3.72;;;;;;;;;;4973680;28;20018;-39
2021/04/26 03:47:57;;;;;;;6.88;4.20;;;;;;;;;;4972631;28;20046;-39
2021/04/26 03:50:23;;;;;;;5.20;2.30;;;;;;;;;;4977472;28;20538;-39
2021/04/26 03:52:49;;;;;;;5.95;2.95;;;;;;;;;;4973357;28;20049;-38
2021/04/26 03:55:16;;;;;;;16.00;3.88;;;;;;;;;;4977757;28;20057;-40
2021/04/26 03:57:42;;;;;;;12.05;5.38;;;;;;;;;;4976370;28;20034;-42
2021/04/26 04:00:08;;;;;;;6.72;4.00;;;;;;;;;;4972608;28;20434;-38
2021/04/26 04:02:33;;;;;;;7.32;3.53;;;;;;;;;;4979018;28;20062;-39
2021/04/26 04:04:59;;;;;;;7.82;3.25;;;;;;;;;;4973200;28;20030;-39
2021/04/26 04:07:26;;;;;;;5.57;1.85;;;;;;;;;;4971924;28;20059;-43
2021/04/26 04:09:52;;;;;;;5.25;3.30;;;;;;;;;;4974340;28;20038;-37
2021/04/26 04:12:17;;;;;;;5.25;3.33;;;;;;;;;;4972502;28;20039;-37
2021/04/26 04:14:42;;;;;;;9.30;2.55;;;;;;;;;;4972650;28;20035;-45
2021/04/26 04:17:07;;;;;;;5.03;2.60;;;;;;;;;;4974044;28;20082;-38
2021/04/26 04:19:33;;;;;;;17.58;4.28;;;;;;;;;;4976353;28;20054;-39
2021/04/26 04:21:58;;;;;;;11.57;4.25;;;;;;;;;;4973310;28;20031;-40
2021/04/26 04:24:24;;;;;;;11.13;3.50;;;;;;;;;;4972071;28;20105;-40
2021/04/26 04:26:49;;;;;;;11.63;3.80;;;;;;;;;;4975621;28;20471;-43
2021/04/26 04:29:15;;;;;;;10.73;2.75;;;;;;;;;;4973569;28;20085;-40
2021/04/26 04:31:40;;;;;;;2.90;2.05;;;;;;;;;;4974315;28;20056;-43
2021/04/26 04:34:05;;;;;;;3.22;2.55;;;;;;;;;;4973071;28;20035;-38
2021/04/26 04:36:31;;;;;;;8.20;3.15;;;;;;;;;;4973398;28;20033;-37
2021/04/26 04:38:56;;;;;;;7.32;3.38;;;;;;;;;;4973741;28;20468;-41
2021/04/26 04:41:21;;;;;;;2.70;1.70;;;;;;;;;;4972551;28;20031;-38
2021/04/26 04:43:47;;;;;;;22.42;2.70;;;;;;;;;;4974827;28;20080;-38
2021/04/26 04:46:12;;;;;;;5.70;3.55;;;;;;;;;;4971197;28;20546;-41
2021/04/26 04:48:37;;;;;;;11.10;4.10;;;;;;;;;;4972043;28;20101;-41
2021/04/26 04:51:03;;;;;;;2.17;1.40;;;;;;;;;;4972275;28;20696;-43
2021/04/26 04:53:29;;;;;;;5.00;2.88;;;;;;;;;;4971444;28;20090;-38
2021/04/26 04:55:54;;;;;;;7.90;3.88;;;;;;;;;;4973649;28;20037;-37
2021/04/26 04:58:20;;;;;;;12.68;2.85;;;;;;;;;;4971982;28;20078;-38
2021/04/26 05:00:45;;;;;;;3.88;2.25;;;;;;;;;;4956481;28;20057;-42
2021/04/26 05:03:10;;;;;;;3.58;2.40;;;;;;;;;;4974644;28;20023;-39
2021/04/26 05:05:35;;;;;;;8.38;2.47;;;;;;;;;;4974871;28;20023;-40
2021/04/26 05:08:01;;;;;;;9.63;3.58;;;;;;;;;;4972647;28;20062;-38
2021/04/26 05:10:27;;;;;;;11.77;2.53;;;;;;;;;;4973616;28;20030;-41
2021/04/26 05:12:52;;;;;;;4.78;3.58;;;;;;;;;;4972220;28;20025;-39
2021/04/26 05:15:17;;;;;;;5.00;2.92;;;;;;;;;;4970124;28;20023;-43
2021/04/26 05:17:42;;;;;;;9.93;3.33;;;;;;;;;;4966674;28;20077;-40
2021/04/26 05:20:08;;;;;;;24.00;3.42;;;;;;;;;;4974486;28;20504;-39
2021/04/26 05:22:34;;;;;;;4.65;2.42;;;;;;;;;;4971884;28;20494;-40
2021/04/26 05:25:01;;;;;;;5.80;4.50;;;;;;;;;;4974327;28;20038;-41
2021/04/26 05:27:26;;;;;;;10.40;4.07;;;;;;;;;;4973411;28;20046;-44
2021/04/26 05:29:51;;;;;;;8.15;3.10;;;;;;;;;;4972228;28;20111;-45
2021/04/26 05:32:17;;;;;;;8.35;4.10;;;;;;;;;;4972494;28;20047;-39
2021/04/26 05:34:42;;;;;;;13.77;3.63;;;;;;;;;;4971729;28;20109;-44
2021/04/26 05:37:07;;;;;;;9.63;3.33;;;;;;;;;;4971098;28;20734;-40
2021/04/26 05:39:32;;;;;;;5.00;3.38;;;;;;;;;;4974972;28;20034;-44
2021/04/26 05:41:58;;;;;;;5.03;3.28;;;;;;;;;;4971350;28;20033;-42
2021/04/26 05:44:23;;;;;;;22.05;4.78;;;;;;;;;;4971910;28;20018;-39
2021/04/26 05:46:48;;;;;;;5.90;3.22;;;;;;;;;;4973460;28;20035;-39
2021/04/26 05:49:14;;;;;;;21.45;3.53;;;;;;;;;;4971860;28;20030;-38
2021/04/26 05:51:39;;;;;;;8.50;3.65;;;;;;;;;;4971512;28;20031;-40
2021/04/26 05:54:04;;;;;;;12.95;5.25;;;;;;;;;;4970722;28;20364;-38
2021/04/26 05:56:30;;;;;;;28.55;7.63;;;;;;;;;;4972914;28;20035;-38
2021/04/26 05:58:55;;;;;;;7.47;4.28;;;;;;;;;;4970818;28;20499;-37
2021/04/26 06:01:20;;;;;;;16.75;4.03;;;;;;;;;;4972499;28;20090;-37
2021/04/26 06:03:46;;;;;;;15.52;4.70;;;;;;;;;;4971297;28;20057;-37
2021/04/26 06:06:11;;;;;;;23.00;4.43;;;;;;;;;;4964293;28;20039;-38
2021/04/26 06:08:36;;;;;;;6.80;3.90;;;;;;;;;;4960497;28;20105;-37
2021/04/26 06:11:02;;;;;;;21.90;5.47;;;;;;;;;;4967711;28;20105;-37
2021/04/26 06:13:27;;;;;;;7.18;5.13;;;;;;;;;;4967868;28;20565;-38
2021/04/26 06:15:53;;;;;;;8.07;6.00;;;;;;;;;;4968958;28;20035;-37
2021/04/26 06:18:20;;;;;;;6.40;4.90;;;;;;;;;;4971036;28;20036;-36
2021/04/26 06:20:47;;;;;;;25.35;6.07;;;;;;;;;;4967193;28;20027;-37
2021/04/26 06:23:12;;;;;;;9.40;6.57;;;;;;;;;;4953570;28;20045;-37
2021/04/26 06:25:38;;;;;;;10.38;6.70;;;;;;;;;;4966168;28;20483;-36
2021/04/26 06:28:04;;;;;;;6.32;3.65;;;;;;;;;;4967649;28;20511;-40
2021/04/26 06:30:30;;;;;;;7.20;4.45;;;;;;;;;;4967522;28;20030;-37
2021/04/26 06:32:55;;;;;;;14.60;6.97;;;;;;;;;;4973469;28;20507;-37
2021/04/26 06:35:20;;;;;;;7.90;6.57;;;;;;;;;;4969921;28;20034;-37
2021/04/26 06:37:46;;;;;;;18.42;8.65;;;;;;;;;;4953161;28;20640;-36
2021/04/26 06:40:11;;;;;;;13.18;9.65;;;;;;;;;;4968721;28;20106;-37
2021/04/26 06:42:37;;;;;;;9.85;8.15;;;;;;;;;;4968120;28;20489;-37
2021/04/26 06:45:03;;;;;;;10.75;9.43;;;;;;;;;;4969965;28;20623;-37
2021/04/26 06:47:28;;;;;;;12.15;10.85;;;;;;;;;;4969164;28;20069;-37
2021/04/26 06:49:54;;;;;;;27.10;14.93;;;;;;;;;;4966918;28;20042;-36
2021/04/26 06:52:19;;;;;;;25.80;14.00;;;;;;;;;;4966990;28;20022;-37
2021/04/26 06:54:46;;;;;;;22.35;15.43;;;;;;;;;;4975995;28;20171;-37
2021/04/26 06:57:12;;;;;;;16.80;11.27;;;;;;;;;;4968188;28;20694;-36
2021/04/26 06:59:37;;;;;;;18.98;11.68;;;;;;;;;;4966981;28;20058;-37
2021/04/26 07:02:03;;;;;;;18.45;10.73;;;;;;;;;;4966862;28;20133;-50
2021/04/26 07:04:28;;;;;;;18.70;9.05;;;;;;;;;;4967743;28;20038;-52
2021/04/26 07:06:54;;;;;;;11.55;8.38;;;;;;;;;;4965251;28;20121;-51
2021/04/26 07:09:19;;;;;;;16.15;9.52;;;;;;;;;;4966175;28;20066;-50
2021/04/26 07:11:45;;;;;;;23.02;12.10;;;;;;;;;;4965728;28;20728;-50
2021/04/26 07:14:13;;;;;;;24.48;10.63;;;;;;;;;;4966351;28;20035;-50
2021/04/26 07:16:39;;;;;;;17.08;7.53;;;;;;;;;;4966808;28;20035;-51
2021/04/26 07:19:05;;;;;;;8.80;5.72;;;;;;;;;;4968474;28;20034;-51
2021/04/26 07:21:30;;;;;;;8.75;4.72;;;;;;;;;;4968094;28;20029;-52
2021/04/26 07:23:55;;;;;;;8.25;4.88;;;;;;;;;;4971324;28;20033;-50
2021/04/26 07:26:21;;;;;;;11.32;4.80;;;;;;;;;;4969499;28;20038;-52
2021/04/26 07:28:46;;;;;;;10.18;6.30;;;;;;;;;;4966528;28;20438;-52
2021/04/26 07:31:12;;;;;;;8.43;4.80;;;;;;;;;;4969370;28;20081;-52
2021/04/26 07:33:37;;;;;;;13.15;4.90;;;;;;;;;;4967883;28;20030;-47
2021/04/26 07:36:02;;;;;;;9.13;4.95;;;;;;;;;;4966137;28;20415;-52
2021/04/26 07:38:28;;;;;;;23.90;5.53;;;;;;;;;;4967956;28;20498;-53
2021/04/26 07:40:53;;;;;;;17.20;5.75;;;;;;;;;;4967375;28;20038;-52
2021/04/26 07:43:18;;;;;;;11.73;5.22;;;;;;;;;;4965724;28;20503;-51
2021/04/26 07:45:44;;;;;;;10.30;5.20;;;;;;;;;;4966723;28;20035;-47
2021/04/26 07:48:09;;;;;;;14.23;8.55;;;;;;;;;;4966767;28;20403;-55
2021/04/26 07:50:34;;;;;;;11.65;5.57;;;;;;;;;;4967855;28;20050;-48
2021/04/26 07:53:00;;;;;;;12.90;5.93;;;;;;;;;;4969549;28;20487;-48
2021/04/26 07:55:25;;;;;;;18.40;4.70;;;;;;;;;;4970632;28;20022;-48
2021/04/26 07:57:50;;;;;;;11.57;3.63;;;;;;;;;;4968391;28;20034;-46
2021/04/26 08:00:17;;;;;;;9.52;5.40;;;;;;;;;;4972052;28;20015;-48
2021/04/26 08:02:43;;;;;;;17.45;6.82;;;;;;;;;;4968347;28;20515;-52
2021/04/26 08:05:08;;;;;;;6.25;4.55;;;;;;;;;;4968423;28;20022;-51
2021/04/26 08:07:34;;;;;;;5.72;2.85;;;;;;;;;;4947304;28;20540;-51
2021/04/26 08:09:59;;;;;;;9.43;1.70;;;;;;;;;;4951704;28;20027;-47
2021/04/26 08:12:24;;;;;;;11.13;4.03;;;;;;;;;;4948647;28;20053;-50
2021/04/26 08:14:49;;;;;;;8.15;4.68;;;;;;;;;;4948648;28;20069;-51
2021/04/26 08:17:15;;;;;;;7.55;3.20;;;;;;;;;;4948868;28;20038;-50
2021/04/26 08:19:40;;;;;;;8.02;3.00;;;;;;;;;;4946616;28;20031;-47
2021/04/26 08:22:06;;;;;;;8.20;4.90;;;;;;;;;;4947848;28;20026;-48
2021/04/26 08:24:32;;;;;;;6.07;3.30;;;;;;;;;;4948272;28;20027;-51
2021/04/26 08:26:57;;;;;;;10.60;5.35;;;;;;;;;;4946547;28;20665;-45
2021/04/26 08:29:23;;;;;;;8.43;4.97;;;;;;;;;;4946714;28;20107;-50
2021/04/26 08:31:48;;;;;;;13.07;5.72;;;;;;;;;;4946729;28;20451;-47
2021/04/26 08:34:14;;;;;;;19.45;6.15;;;;;;;;;;4947879;28;20511;-49
2021/04/26 08:36:39;;;;;;;11.13;5.65;;;;;;;;;;4947407;28;20034;-50
2021/04/26 08:39:05;;;;;;;16.63;5.88;;;;;;;;;;4946851;28;20557;-50
2021/04/26 08:41:30;;;;;;;27.80;7.57;;;;;;;;;;4947602;28;20088;-51
2021/04/26 08:43:56;;;;;;;17.55;8.30;;;;;;;;;;4947400;28;20468;-51
2021/04/26 08:46:24;;;;;;;19.73;8.02;;;;;;;;;;4950224;28;20072;-52
2021/04/26 08:48:49;;;;;;;35.13;9.10;;;;;;;;;;4946727;28;20063;-49
2021/04/26 08:51:15;;;;;;;18.45;7.22;;;;;;;;;;4947325;28;20031;-49
2021/04/26 08:53:40;;;;;;;21.55;5.43;;;;;;;;;;4948678;28;20097;-50
2021/04/26 08:56:07;;;;;;;22.40;6.50;;;;;;;;;;4948429;28;20241;-48
2021/04/26 08:58:32;;;;;;;11.85;6.70;;;;;;;;;;4948096;28;20112;-49
2021/04/26 09:00:57;;;;;;;9.18;5.95;;;;;;;;;;4946974;28;20617;-47
2021/04/26 09:03:30;;;;;;;27.52;7.55;;;;;;;;;;4946452;28;20034;-51
2021/04/26 09:05:55;;;;;;;17.15;7.22;;;;;;;;;;4947381;28;20035;-47
2021/04/26 09:08:23;;;;;;;23.63;7.82;;;;;;;;;;4958626;28;20047;-47
2021/04/26 09:10:50;;;;;;;9.52;6.05;;;;;;;;;;4968385;28;20034;-49
2021/04/26 09:13:22;;;;;;;22.50;9.98;;;;;;;;;;4966646;28;20037;-49
2021/04/26 09:15:54;;;;;;;15.20;6.00;;;;;;;;;;4968355;28;20031;-48
2021/04/26 09:18:19;;;;;;;14.57;7.55;;;;;;;;;;4966119;28;20042;-50
2021/04/26 09:20:44;;;;;;;16.58;8.13;;;;;;;;;;4957660;28;20033;-48
2021/04/26 09:23:13;;;;;;;24.63;7.65;;;;;;;;;;4976164;28;20110;-47
2021/04/26 09:25:42;;;;;;;21.35;6.38;;;;;;;;;;4966785;28;20506;-46
2021/04/26 09:28:17;;;;;;;11.10;5.25;;;;;;;;;;4966754;28;20692;-51
2021/04/26 09:30:46;;;;;;;7.88;5.95;;;;;;;;;;4965749;28;20035;-50
2021/04/26 09:33:39;;;;;;;17.05;5.82;;;;;;;;;;4966454;28;20031;-50
2021/04/26 09:36:20;;;;;;;19.73;9.07;;;;;;;;;;4969468;28;20398;-48
2021/04/26 09:38:52;;;;;;;17.70;5.95;;;;;;;;;;4968138;28;20027;-53
2021/04/26 09:41:31;;;;;;;15.45;6.65;;;;;;;;;;4967050;28;20042;-47
2021/04/26 09:43:59;;;;;;;12.00;6.13;;;;;;;;;;4968883;28;20019;-48
2021/04/26 09:46:36;;;;;;;11.73;5.85;;;;;;;;;;4966155;28;20041;-50
2021/04/26 09:49:06;;;;;;;19.65;8.55;;;;;;;;;;4967691;28;20073;-48
2021/04/26 09:51:32;;;;;;;36.75;7.93;;;;;;;;;;4964499;28;20668;-47
2021/04/26 09:53:57;;;;;;;7.97;5.63;;;;;;;;;;4966391;28;20093;-47
2021/04/26 09:56:24;;;;;;;20.10;4.90;;;;;;;;;;4953430;28;20022;-48
2021/04/26 09:58:51;;;;;;;20.70;8.15;;;;;;;;;;4978681;28;20034;-53
2021/04/26 10:01:17;;;;;;;17.92;5.32;;;;;;;;;;4966441;28;20125;-48
2021/04/26 10:03:42;;;;;;;6.72;3.10;;;;;;;;;;4966314;28;20121;-51
2021/04/26 10:06:08;;;;;;;6.40;4.78;;;;;;;;;;4965315;28;20031;-50
2021/04/26 10:08:34;;;;;;;26.20;8.52;;;;;;;;;;4966071;28;20387;-51
2021/04/26 10:10:59;;;;;;;19.73;8.60;;;;;;;;;;4966239;28;20085;-52
2021/04/26 10:13:25;;;;;;;50.05;11.05;;;;;;;;;;4968102;28;20085;-51
2021/04/26 10:15:55;;;;;;;6.97;4.10;;;;;;;;;;4968038;28;20101;-51
2021/04/26 10:18:26;;;;;;;15.50;6.82;;;;;;;;;;4963595;28;20451;-52
2021/04/26 10:20:52;;;;;;;23.67;7.07;;;;;;;;;;4953779;28;20078;-50
2021/04/26 10:23:36;;;;;;;15.43;7.80;;;;;;;;;;4965445;28;20484;-47
2021/04/26 10:26:02;;;;;;;24.60;6.05;;;;;;;;;;4965814;28;20038;-50
2021/04/26 10:28:32;;;;;;;10.95;4.28;;;;;;;;;;4970069;28;20035;-51
2021/04/26 10:31:15;;;;;;;27.15;7.80;;;;;;;;;;4970089;28;20033;-45
2021/04/26 10:33:55;;;;;;;29.17;7.30;;;;;;;;;;4966009;28;20030;-45
2021/04/26 10:36:39;;;;;;;14.02;6.47;;;;;;;;;;4967476;28;20547;-52
2021/04/26 10:39:08;;;;;;;11.40;6.80;;;;;;;;;;4969087;28;20039;-48
2021/04/26 10:41:46;;;;;;;13.00;7.18;;;;;;;;;;4965499;28;20061;-50
2021/04/26 10:44:12;;;;;;;6.82;4.07;;;;;;;;;;4966410;28;20137;-47
2021/04/26 10:46:37;;;;;;;14.38;7.18;;;;;;;;;;4967239;28;20133;-49
2021/04/26 10:49:03;;;;;;;21.77;8.18;;;;;;;;;;4962472;28;20035;-48
2021/04/26 10:51:28;;;;;;;7.38;5.00;;;;;;;;;;4966950;28;20121;-50
2021/04/26 10:53:53;;;;;;;22.85;7.90;;;;;;;;;;4968302;28;20291;-48
2021/04/26 10:56:23;;;;;;;16.48;6.53;;;;;;;;;;4967363;28;20019;-52
2021/04/26 10:58:49;;;;;;;17.60;7.65;;;;;;;;;;4967392;28;20023;-49
2021/04/26 11:01:18;;;;;;;14.20;5.57;;;;;;;;;;4966705;28;20030;-49
2021/04/26 11:03:45;;;;;;;21.60;5.85;;;;;;;;;;4966284;28;20030;-51
2021/04/26 11:06:12;;;;;;;10.00;6.60;;;;;;;;;;4971547;28;20022;-50
2021/04/26 11:09:00;;;;;;;14.43;5.53;;;;;;;;;;4969936;28;20423;-48
2021/04/26 11:11:36;;;;;;;14.38;5.80;;;;;;;;;;4966171;28;20456;-46
2021/04/26 11:14:04;;;;;;;15.48;6.25;;;;;;;;;;4970350;28;20100;-45
2021/04/26 11:16:32;;;;;;;8.90;4.72;;;;;;;;;;4969906;28;20033;-49
2021/04/26 11:18:57;;;;;;;6.25;3.53;;;;;;;;;;4964511;28;20031;-47
2021/04/26 11:21:41;;;;;;;12.23;4.50;;;;;;;;;;4967440;28;20019;-42
2021/04/26 11:24:07;;;;;;;7.60;3.08;;;;;;;;;;4968339;28;20030;-49
2021/04/26 11:26:32;;;;;;;20.25;6.22;;;;;;;;;;4968795;28;20128;-45
2021/04/26 11:29:00;;;;;;;15.85;4.43;;;;;;;;;;4969762;28;20042;-46
2021/04/26 11:31:41;;;;;;;10.20;4.53;;;;;;;;;;4972049;28;20074;-44
2021/04/26 11:34:26;;;;;;;5.77;3.40;;;;;;;;;;4969825;28;20023;-45
2021/04/26 11:36:57;;;;;;;15.73;5.72;;;;;;;;;;4969499;28;20543;-48
2021/04/26 11:39:26;;;;;;;18.48;8.27;;;;;;;;;;4972252;28;20034;-49
2021/04/26 11:41:52;;;;;;;12.05;3.97;;;;;;;;;;4970245;28;20599;-48
2021/04/26 11:44:24;;;;;;;8.18;4.03;;;;;;;;;;4971340;28;20113;-48
2021/04/26 11:46:50;;;;;;;6.88;2.30;;;;;;;;;;4971412;28;20069;-51
2021/04/26 11:49:15;;;;;;;35.90;11.45;;;;;;;;;;4970154;28;20925;-51
2021/04/26 11:51:41;;;;;;;23.38;6.85;;;;;;;;;;4970070;28;20038;-43
2021/04/26 11:54:13;;;;;;;11.43;4.53;;;;;;;;;;4971653;28;20141;-46
2021/04/26 11:56:39;;;;;;;13.93;8.63;;;;;;;;;;4969062;28;20019;-47
2021/04/26 11:59:05;;;;;;;12.27;5.07;;;;;;;;;;4969746;28;20026;-45
2021/04/26 12:01:31;;;;;;;28.80;7.38;;;;;;;;;;4971088;28;20057;-44
2021/04/26 12:03:57;;;;;;;18.77;5.30;;;;;;;;;;4970431;28;20034;-45
2021/04/26 12:06:22;;;;;;;16.75;7.15;;;;;;;;;;4969822;28;20031;-46
2021/04/26 12:08:48;;;;;;;15.77;5.47;;;;;;;;;;4969517;28;20142;-44
2021/04/26 12:11:17;;;;;;;13.55;5.53;;;;;;;;;;4968078;28;20070;-45
2021/04/26 12:13:42;;;;;;;16.38;9.90;;;;;;;;;;4968792;28;20038;-48
2021/04/26 12:16:08;;;;;;;25.73;12.05;;;;;;;;;;4972507;28;20027;-47
2021/04/26 12:18:33;;;;;;;22.52;10.23;;;;;;;;;;4969546;28;20049;-46
2021/04/26 12:20:59;;;;;;;24.52;11.25;;;;;;;;;;4972161;28;20061;-43
2021/04/26 12:23:24;;;;;;;25.40;14.63;;;;;;;;;;4968802;28;20033;-43
2021/04/26 12:25:49;;;;;;;23.90;8.98;;;;;;;;;;4968587;28;20109;-48
2021/04/26 12:28:15;;;;;;;10.15;6.07;;;;;;;;;;4954786;28;20054;-46
2021/04/26 12:30:41;;;;;;;10.55;4.40;;;;;;;;;;4967441;28;20027;-49
2021/04/26 12:33:22;;;;;;;10.88;3.78;;;;;;;;;;4969024;28;20468;-47
2021/04/26 12:35:48;;;;;;;6.57;4.13;;;;;;;;;;4969598;28;20030;-43
2021/04/26 12:38:13;;;;;;;11.98;4.72;;;;;;;;;;4969683;28;20752;-46
2021/04/26 12:40:39;;;;;;;4.82;3.20;;;;;;;;;;4970047;28;20411;-46
2021/04/26 12:43:04;;;;;;;8.15;3.60;;;;;;;;;;4970980;28;20397;-43
2021/04/26 12:45:40;;;;;;;9.00;1.80;;;;;;;;;;4968651;28;20045;-46
2021/04/26 12:48:13;;;;;;;7.05;3.33;;;;;;;;;;4966711;28;20113;-46
2021/04/26 12:50:39;;;;;;;18.02;4.85;;;;;;;;;;4968138;28;20039;-44
2021/04/26 12:53:08;;;;;;;8.82;3.22;;;;;;;;;;4965581;28;20076;-46
2021/04/26 12:55:34;;;;;;;3.67;2.53;;;;;;;;;;4967051;28;20026;-45
2021/04/26 12:58:13;;;;;;;6.07;3.40;;;;;;;;;;4969813;28;20113;-46
2021/04/26 13:00:44;;;;;;;13.23;4.35;;;;;;;;;;4967555;28;20510;-46
2021/04/26 13:03:28;;;;;;;13.07;4.20;;;;;;;;;;4968120;28;20123;-45
2021/04/26 13:05:54;;;;;;;8.63;4.72;;;;;;;;;;4969161;28;20038;-42
2021/04/26 13:08:21;;;;;;;4.07;2.10;;;;;;;;;;4967447;28;20068;-48
2021/04/26 13:10:47;;;;;;;6.05;2.35;;;;;;;;;;4969317;28;20035;-45
2021/04/26 13:13:12;;;;;;;17.60;5.07;;;;;;;;;;4966354;28;20388;-41
2021/04/26 13:15:38;;;;;;;2.83;1.92;;;;;;;;;;4968364;28;20469;-44
2021/04/26 13:18:29;;;;;;;3.83;2.08;;;;;;;;;;4966463;28;20517;-45
2021/04/26 13:20:57;;;;;;;4.82;2.15;;;;;;;;;;4966223;28;20118;-45
2021/04/26 13:23:24;;;;;;;7.75;2.42;;;;;;;;;;4969348;28;20027;-42
2021/04/26 13:25:50;;;;;;;4.05;2.08;;;;;;;;;;4969975;28;20035;-43
2021/04/26 13:28:25;;;;;;;2.83;2.13;;;;;;;;;;4967952;28;20097;-48
2021/04/26 13:30:51;;;;;;;6.07;3.75;;;;;;;;;;4969148;28;20133;-48
2021/04/26 13:33:16;;;;;;;14.15;2.92;;;;;;;;;;4968991;28;20641;-48
2021/04/26 13:35:41;;;;;;;9.10;2.83;;;;;;;;;;4966496;28;20027;-45
2021/04/26 13:38:07;;;;;;;6.10;2.13;;;;;;;;;;4966823;28;20034;-46
2021/04/26 13:40:32;;;;;;;7.70;2.60;;;;;;;;;;4969736;28;20027;-46
2021/04/26 13:42:57;;;;;;;4.68;1.58;;;;;;;;;;4964736;28;20482;-46
2021/04/26 13:45:22;;;;;;;4.43;2.17;;;;;;;;;;4966505;28;20090;-48
2021/04/26 13:47:48;;;;;;;10.75;3.42;;;;;;;;;;4967691;28;20125;-44
2021/04/26 13:50:13;;;;;;;6.45;1.83;;;;;;;;;;4966002;28;20030;-43
2021/04/26 13:52:38;;;;;;;4.82;2.40;;;;;;;;;;4969131;28;20089;-49
2021/04/26 13:55:04;;;;;;;10.00;2.95;;;;;;;;;;4966785;28;20031;-44
2021/04/26 13:57:29;;;;;;;5.65;2.50;;;;;;;;;;4965653;28;20034;-51
2021/04/26 13:59:54;;;;;;;8.32;4.10;;;;;;;;;;4967012;28;20046;-45
2021/04/26 14:02:20;;;;;;;5.03;1.52;;;;;;;;;;4967032;28;20027;-44
2021/04/26 14:04:45;;;;;;;5.78;3.42;;;;;;;;;;4969242;28;20038;-44
2021/04/26 14:07:11;;;;;;;7.25;2.88;;;;;;;;;;4970996;28;20508;-47
2021/04/26 14:09:36;;;;;;;14.32;2.70;;;;;;;;;;4952541;28;20038;-43
2021/04/26 14:12:01;;;;;;;3.42;1.88;;;;;;;;;;4969537;28;20121;-46
2021/04/26 14:14:27;;;;;;;11.52;3.72;;;;;;;;;;4968250;28;20391;-48
2021/04/26 14:16:52;;;;;;;6.90;2.40;;;;;;;;;;4971119;28;20126;-44
2021/04/26 14:19:17;;;;;;;4.95;2.63;;;;;;;;;;4973508;28;20110;-48
2021/04/26 14:21:43;;;;;;;10.05;3.47;;;;;;;;;;4957905;28;20239;-45
2021/04/26 14:27:12;;;;;;;8.35;3.22;;;;;;;;;;4961991;28;20057;-46
2021/04/26 14:29:37;;;;;;;13.70;3.42;;;;;;;;;;4968330;28;20069;-46
2021/04/26 14:32:03;;;;;;;5.13;2.97;;;;;;;;;;4969744;28;20895;-46
2021/04/26 14:34:28;;;;;;;5.07;2.40;;;;;;;;;;4969792;28;20094;-45
2021/04/26 14:36:54;;;;;;;7.00;2.00;;;;;;;;;;4968714;28;20796;-48